sensor_id;sensor_type;location;lat;lon;timestamp;pressure;altitude;pressure_sealevel;temperature;humidity
11077;BME280;5591;42.626;23.380;2023-11-22T00:00:44;93479.84;;;10.62;nan
11077;BME280;5591;42.626;23.380;2023-11-22T00:03:12;93488.09;;;10.72;nan
11077;BME280;5591;42.626;23.380;2023-11-22T00:05:39;93482.50;;;10.56;nan
11077;BME280;5591;42.626;23.380;2023-11-22T00:08:06;93483.81;;;10.84;nan
11077;BME280;5591;42.626;23.380;2023-11-22T00:10:33;93473.88;;;10.93;nan
11077;BME280;5591;42.626;23.380;2023-11-22T00:13:00;93466.56;;;11.08;nan
11077;BME280;5591;42.626;23.380;2023-11-22T00:15:27;93469.84;;;10.97;nan
11077;BME280;5591;42.626;23.380;2023-11-22T00:17:54;93472.78;;;11.13;nan
11077;BME280;5591;42.626;23.380;2023-11-22T00:20:24;93457.38;;;10.86;nan
11077;BME280;5591;42.626;23.380;2023-11-22T00:22:51;93446.59;;;10.94;nan
11077;BME280;5591;42.626;23.380;2023-11-22T00:25:17;93454.50;;;10.87;nan
11077;BME280;5591;42.626;23.380;2023-11-22T00:27:44;93465.88;;;10.68;nan
11077;BME280;5591;42.626;23.380;2023-11-22T00:30:12;93465.09;;;10.68;nan
11077;BME280;5591;42.626;23.380;2023-11-22T00:32:39;93459.97;;;10.92;nan
11077;BME280;5591;42.626;23.380;2023-11-22T00:35:07;93464.59;;;10.90;nan
11077;BME280;5591;42.626;23.380;2023-11-22T00:37:35;93453.66;;;10.43;nan
11077;BME280;5591;42.626;23.380;2023-11-22T00:40:03;93451.25;;;10.41;nan
11077;BME280;5591;42.626;23.380;2023-11-22T00:42:36;93444.47;;;10.78;nan
11077;BME280;5591;42.626;23.380;2023-11-22T00:45:03;93463.88;;;10.64;nan
11077;BME280;5591;42.626;23.380;2023-11-22T00:47:31;93469.56;;;10.61;nan
11077;BME280;5591;42.626;23.380;2023-11-22T00:49:58;93454.34;;;10.06;nan
11077;BME280;5591;42.626;23.380;2023-11-22T00:52:25;93460.41;;;10.13;nan
11077;BME280;5591;42.626;23.380;2023-11-22T00:54:53;93479.50;;;10.26;nan
11077;BME280;5591;42.626;23.380;2023-11-22T00:57:20;93446.28;;;10.01;nan
11077;BME280;5591;42.626;23.380;2023-11-22T00:59:47;93440.84;;;9.83;nan
11077;BME280;5591;42.626;23.380;2023-11-22T01:02:13;93450.91;;;10.05;nan
11077;BME280;5591;42.626;23.380;2023-11-22T01:04:40;93447.91;;;10.08;nan
11077;BME280;5591;42.626;23.380;2023-11-22T01:07:07;93451.47;;;10.33;nan
11077;BME280;5591;42.626;23.380;2023-11-22T01:09:34;93452.16;;;10.03;nan
11077;BME280;5591;42.626;23.380;2023-11-22T01:12:03;93452.16;;;10.03;nan
11077;BME280;5591;42.626;23.380;2023-11-22T01:14:30;93439.81;;;9.90;nan
11077;BME280;5591;42.626;23.380;2023-11-22T01:16:57;93441.25;;;9.80;nan
11077;BME280;5591;42.626;23.380;2023-11-22T01:19:23;93432.78;;;9.91;nan
11077;BME280;5591;42.626;23.380;2023-11-22T01:21:51;93436.19;;;10.11;nan
11077;BME280;5591;42.626;23.380;2023-11-22T01:24:18;93433.66;;;10.55;nan
11077;BME280;5591;42.626;23.380;2023-11-22T01:26:45;93426.31;;;10.70;nan
11077;BME280;5591;42.626;23.380;2023-11-22T01:29:13;93422.44;;;10.85;nan
11077;BME280;5591;42.626;23.380;2023-11-22T01:31:39;93429.28;;;10.86;nan
11077;BME280;5591;42.626;23.380;2023-11-22T01:34:07;93427.00;;;10.96;nan
11077;BME280;5591;42.626;23.380;2023-11-22T01:36:34;93428.00;;;10.58;nan
11077;BME280;5591;42.626;23.380;2023-11-22T01:39:01;93419.69;;;10.04;nan
11077;BME280;5591;42.626;23.380;2023-11-22T01:41:28;93418.41;;;10.32;nan
11077;BME280;5591;42.626;23.380;2023-11-22T01:43:56;93413.28;;;10.57;nan
11077;BME280;5591;42.626;23.380;2023-11-22T01:46:25;93409.50;;;10.84;nan
11077;BME280;5591;42.626;23.380;2023-11-22T01:48:52;93403.00;;;10.93;nan
11077;BME280;5591;42.626;23.380;2023-11-22T01:51:20;93384.31;;;10.76;nan
11077;BME280;5591;42.626;23.380;2023-11-22T01:53:50;93410.09;;;10.92;nan
11077;BME280;5591;42.626;23.380;2023-11-22T01:56:19;93403.16;;;11.04;nan
11077;BME280;5591;42.626;23.380;2023-11-22T01:58:46;93400.19;;;11.25;nan
11077;BME280;5591;42.626;23.380;2023-11-22T02:01:14;93400.41;;;10.86;nan
11077;BME280;5591;42.626;23.380;2023-11-22T02:03:42;93390.88;;;10.92;nan
11077;BME280;5591;42.626;23.380;2023-11-22T02:06:09;93400.50;;;10.67;nan
11077;BME280;5591;42.626;23.380;2023-11-22T02:08:36;93398.41;;;10.38;nan
11077;BME280;5591;42.626;23.380;2023-11-22T02:11:03;93401.88;;;10.19;nan
11077;BME280;5591;42.626;23.380;2023-11-22T02:13:29;93400.72;;;9.76;nan
11077;BME280;5591;42.626;23.380;2023-11-22T02:15:56;93397.69;;;9.98;nan
11077;BME280;5591;42.626;23.380;2023-11-22T02:18:25;93403.56;;;9.87;nan
11077;BME280;5591;42.626;23.380;2023-11-22T02:20:53;93417.84;;;10.17;nan
11077;BME280;5591;42.626;23.380;2023-11-22T02:23:22;93391.31;;;10.45;nan
11077;BME280;5591;42.626;23.380;2023-11-22T02:25:49;93395.38;;;10.34;nan
11077;BME280;5591;42.626;23.380;2023-11-22T02:28:15;93299.53;;;9.81;nan
11077;BME280;5591;42.626;23.380;2023-11-22T02:30:43;93404.97;;;9.77;nan
11077;BME280;5591;42.626;23.380;2023-11-22T02:33:10;93402.09;;;10.11;nan
11077;BME280;5591;42.626;23.380;2023-11-22T02:35:37;93390.44;;;9.94;nan
11077;BME280;5591;42.626;23.380;2023-11-22T02:38:04;93313.94;;;9.47;nan
11077;BME280;5591;42.626;23.380;2023-11-22T02:40:32;93395.69;;;9.81;nan
11077;BME280;5591;42.626;23.380;2023-11-22T02:42:59;93393.44;;;9.84;nan
11077;BME280;5591;42.626;23.380;2023-11-22T02:45:31;93391.41;;;10.12;nan
11077;BME280;5591;42.626;23.380;2023-11-22T02:47:58;93388.06;;;9.47;nan
11077;BME280;5591;42.626;23.380;2023-11-22T02:50:27;93417.25;;;9.51;nan
11077;BME280;5591;42.626;23.380;2023-11-22T02:52:54;93394.91;;;9.55;nan
11077;BME280;5591;42.626;23.380;2023-11-22T02:55:20;93392.91;;;9.63;nan
11077;BME280;5591;42.626;23.380;2023-11-22T02:57:49;93391.06;;;9.77;nan
11077;BME280;5591;42.626;23.380;2023-11-22T03:00:17;93394.09;;;9.41;nan
11077;BME280;5591;42.626;23.380;2023-11-22T03:02:45;93385.63;;;9.59;nan
11077;BME280;5591;42.626;23.380;2023-11-22T03:05:12;93389.84;;;9.73;nan
11077;BME280;5591;42.626;23.380;2023-11-22T03:07:39;93392.03;;;9.95;nan
11077;BME280;5591;42.626;23.380;2023-11-22T03:10:07;93401.47;;;10.28;nan
11077;BME280;5591;42.626;23.380;2023-11-22T03:12:35;93402.31;;;9.83;nan
11077;BME280;5591;42.626;23.380;2023-11-22T03:15:03;93400.91;;;10.13;nan
11077;BME280;5591;42.626;23.380;2023-11-22T03:17:31;93412.41;;;9.99;nan
11077;BME280;5591;42.626;23.380;2023-11-22T03:19:58;93377.53;;;9.86;nan
11077;BME280;5591;42.626;23.380;2023-11-22T03:22:26;93411.94;;;10.35;nan
11077;BME280;5591;42.626;23.380;2023-11-22T03:24:55;93419.66;;;10.10;nan
11077;BME280;5591;42.626;23.380;2023-11-22T03:27:23;93412.69;;;10.48;nan
11077;BME280;5591;42.626;23.380;2023-11-22T03:29:51;93412.41;;;10.63;nan
11077;BME280;5591;42.626;23.380;2023-11-22T03:32:19;93412.38;;;10.76;nan
11077;BME280;5591;42.626;23.380;2023-11-22T03:34:47;93407.78;;;10.65;nan
11077;BME280;5591;42.626;23.380;2023-11-22T03:37:13;93412.19;;;10.71;nan
11077;BME280;5591;42.626;23.380;2023-11-22T03:39:40;93405.44;;;10.50;nan
11077;BME280;5591;42.626;23.380;2023-11-22T03:42:13;93408.09;;;10.31;nan
11077;BME280;5591;42.626;23.380;2023-11-22T03:44:40;93402.22;;;10.42;nan
11077;BME280;5591;42.626;23.380;2023-11-22T03:47:07;93402.50;;;10.27;nan
11077;BME280;5591;42.626;23.380;2023-11-22T03:49:35;93403.56;;;10.57;nan
11077;BME280;5591;42.626;23.380;2023-11-22T03:52:02;93402.66;;;10.32;nan
11077;BME280;5591;42.626;23.380;2023-11-22T03:54:29;93397.78;;;10.42;nan
11077;BME280;5591;42.626;23.380;2023-11-22T03:56:57;93396.34;;;10.46;nan
11077;BME280;5591;42.626;23.380;2023-11-22T03:59:24;93388.72;;;10.82;nan
11077;BME280;5591;42.626;23.380;2023-11-22T04:01:51;93398.56;;;10.43;nan
11077;BME280;5591;42.626;23.380;2023-11-22T04:04:18;93405.69;;;10.80;nan
11077;BME280;5591;42.626;23.380;2023-11-22T04:06:46;93403.16;;;11.04;nan
11077;BME280;5591;42.626;23.380;2023-11-22T04:09:13;93394.31;;;10.55;nan
11077;BME280;5591;42.626;23.380;2023-11-22T04:11:40;93414.38;;;10.74;nan
11077;BME280;5591;42.626;23.380;2023-11-22T04:14:07;93414.22;;;10.12;nan
11077;BME280;5591;42.626;23.380;2023-11-22T04:16:33;93413.00;;;9.95;nan
11077;BME280;5591;42.626;23.380;2023-11-22T04:19:01;93417.66;;;10.06;nan
11077;BME280;5591;42.626;23.380;2023-11-22T04:21:28;93427.84;;;10.40;nan
11077;BME280;5591;42.626;23.380;2023-11-22T04:23:56;93414.97;;;10.38;nan
11077;BME280;5591;42.626;23.380;2023-11-22T04:26:23;93404.56;;;9.73;nan
11077;BME280;5591;42.626;23.380;2023-11-22T04:28:52;93438.81;;;9.98;nan
11077;BME280;5591;42.626;23.380;2023-11-22T04:31:18;93439.00;;;9.83;nan
11077;BME280;5591;42.626;23.380;2023-11-22T04:33:45;93446.28;;;9.81;nan
11077;BME280;5591;42.626;23.380;2023-11-22T04:36:12;93438.81;;;10.17;nan
11077;BME280;5591;42.626;23.380;2023-11-22T04:38:39;93453.38;;;10.64;nan
11077;BME280;5591;42.626;23.380;2023-11-22T04:41:07;93460.28;;;10.65;nan
11077;BME280;5591;42.626;23.380;2023-11-22T04:43:34;93452.34;;;10.78;nan
11077;BME280;5591;42.626;23.380;2023-11-22T04:46:02;93456.63;;;10.66;nan
11077;BME280;5591;42.626;23.380;2023-11-22T04:48:30;93459.88;;;10.61;nan
11077;BME280;5591;42.626;23.380;2023-11-22T04:50:56;93468.59;;;10.42;nan
11077;BME280;5591;42.626;23.380;2023-11-22T04:53:23;93464.78;;;10.32;nan
11077;BME280;5591;42.626;23.380;2023-11-22T04:55:50;93474.34;;;10.77;nan
11077;BME280;5591;42.626;23.380;2023-11-22T04:58:18;93486.22;;;10.92;nan
11077;BME280;5591;42.626;23.380;2023-11-22T05:00:45;93487.66;;;10.75;nan
11077;BME280;5591;42.626;23.380;2023-11-22T05:03:12;93497.59;;;11.17;nan
11077;BME280;5591;42.626;23.380;2023-11-22T05:05:39;93500.97;;;10.87;nan
11077;BME280;5591;42.626;23.380;2023-11-22T05:08:06;93510.38;;;10.44;nan
11077;BME280;5591;42.626;23.380;2023-11-22T05:10:33;93510.56;;;9.97;nan
11077;BME280;5591;42.626;23.380;2023-11-22T05:12:59;93508.59;;;10.18;nan
11077;BME280;5591;42.626;23.380;2023-11-22T05:15:30;93507.72;;;10.50;nan
11077;BME280;5591;42.626;23.380;2023-11-22T05:17:57;93521.22;;;10.67;nan
11077;BME280;5591;42.626;23.380;2023-11-22T05:20:23;93518.25;;;9.92;nan
11077;BME280;5591;42.626;23.380;2023-11-22T05:22:50;93509.97;;;9.88;nan
11077;BME280;5591;42.626;23.380;2023-11-22T05:25:17;93501.53;;;9.80;nan
11077;BME280;5591;42.626;23.380;2023-11-22T05:27:44;93508.59;;;10.25;nan
11077;BME280;5591;42.626;23.380;2023-11-22T05:30:12;93528.31;;;10.47;nan
11077;BME280;5591;42.626;23.380;2023-11-22T05:32:42;93526.09;;;10.50;nan
11077;BME280;5591;42.626;23.380;2023-11-22T05:35:08;93540.06;;;10.12;nan
11077;BME280;5591;42.626;23.380;2023-11-22T05:37:36;93534.34;;;9.89;nan
11077;BME280;5591;42.626;23.380;2023-11-22T05:40:04;93532.91;;;9.61;nan
11077;BME280;5591;42.626;23.380;2023-11-22T05:42:31;93527.34;;;10.22;nan
11077;BME280;5591;42.626;23.380;2023-11-22T05:45:00;93552.75;;;10.28;nan
11077;BME280;5591;42.626;23.380;2023-11-22T05:47:27;93545.06;;;10.52;nan
11077;BME280;5591;42.626;23.380;2023-11-22T05:49:55;93543.06;;;10.41;nan
11077;BME280;5591;42.626;23.380;2023-11-22T05:52:22;93549.91;;;10.42;nan
11077;BME280;5591;42.626;23.380;2023-11-22T05:54:49;93560.41;;;10.49;nan
11077;BME280;5591;42.626;23.380;2023-11-22T05:57:15;93549.06;;;10.61;nan
11077;BME280;5591;42.626;23.380;2023-11-22T05:59:45;93560.91;;;10.96;nan
11077;BME280;5591;42.626;23.380;2023-11-22T06:02:12;93558.13;;;10.72;nan
11077;BME280;5591;42.626;23.380;2023-11-22T06:04:39;93562.16;;;10.81;nan
11077;BME280;5591;42.626;23.380;2023-11-22T06:07:07;93573.50;;;10.55;nan
11077;BME280;5591;42.626;23.380;2023-11-22T06:09:34;93563.66;;;10.18;nan
11077;BME280;5591;42.626;23.380;2023-11-22T06:12:01;93573.50;;;10.16;nan
11077;BME280;5591;42.626;23.380;2023-11-22T06:14:28;93582.59;;;10.59;nan
11077;BME280;5591;42.626;23.380;2023-11-22T06:16:55;93569.44;;;10.79;nan
11077;BME280;5591;42.626;23.380;2023-11-22T06:19:21;93593.84;;;10.79;nan
11077;BME280;5591;42.626;23.380;2023-11-22T06:21:48;93595.50;;;10.61;nan
11077;BME280;5591;42.626;23.380;2023-11-22T06:24:17;93596.31;;;10.42;nan
11077;BME280;5591;42.626;23.380;2023-11-22T06:26:44;93595.91;;;10.58;nan
11077;BME280;5591;42.626;23.380;2023-11-22T06:29:11;93597.72;;;10.70;nan
11077;BME280;5591;42.626;23.380;2023-11-22T06:31:38;93594.47;;;10.55;nan
11077;BME280;5591;42.626;23.380;2023-11-22T06:34:05;93609.34;;;10.94;nan
11077;BME280;5591;42.626;23.380;2023-11-22T06:36:32;93612.56;;;10.96;nan
11077;BME280;5591;42.626;23.380;2023-11-22T06:38:59;93603.75;;;10.64;nan
11077;BME280;5591;42.626;23.380;2023-11-22T06:41:28;93611.97;;;11.00;nan
11077;BME280;5591;42.626;23.380;2023-11-22T06:43:55;93604.84;;;11.20;nan
11077;BME280;5591;42.626;23.380;2023-11-22T06:46:22;93602.13;;;11.46;nan
11077;BME280;5591;42.626;23.380;2023-11-22T06:48:49;93621.78;;;11.37;nan
11077;BME280;5591;42.626;23.380;2023-11-22T06:51:16;93638.28;;;11.44;nan
11077;BME280;5591;42.626;23.380;2023-11-22T06:53:43;93629.16;;;10.96;nan
11077;BME280;5591;42.626;23.380;2023-11-22T06:56:10;93648.00;;;11.50;nan
11077;BME280;5591;42.626;23.380;2023-11-22T06:58:39;93646.91;;;11.01;nan
11077;BME280;5591;42.626;23.380;2023-11-22T07:01:06;93641.53;;;11.53;nan
11077;BME280;5591;42.626;23.380;2023-11-22T07:03:34;93617.81;;;11.15;nan
11077;BME280;5591;42.626;23.380;2023-11-22T07:06:02;93644.97;;;11.47;nan
11077;BME280;5591;42.626;23.380;2023-11-22T07:08:29;93674.34;;;11.88;nan
11077;BME280;5591;42.626;23.380;2023-11-22T07:10:56;93651.19;;;12.03;nan
11077;BME280;5591;42.626;23.380;2023-11-22T07:13:23;93640.88;;;12.08;nan
11077;BME280;5591;42.626;23.380;2023-11-22T07:15:51;93657.00;;;12.18;nan
11077;BME280;5591;42.626;23.380;2023-11-22T07:18:19;93650.44;;;12.33;nan
11077;BME280;5591;42.626;23.380;2023-11-22T07:20:49;93648.16;;;12.67;nan
11077;BME280;5591;42.626;23.380;2023-11-22T07:23:16;93642.66;;;12.69;nan
11077;BME280;5591;42.626;23.380;2023-11-22T07:25:45;93665.63;;;12.31;nan
11077;BME280;5591;42.626;23.380;2023-11-22T07:28:12;93660.75;;;12.28;nan
11077;BME280;5591;42.626;23.380;2023-11-22T07:30:38;93664.56;;;12.38;nan
11077;BME280;5591;42.626;23.380;2023-11-22T07:33:08;93665.25;;;12.28;nan
11077;BME280;5591;42.626;23.380;2023-11-22T07:35:36;93671.72;;;12.56;nan
11077;BME280;5591;42.626;23.380;2023-11-22T07:38:04;93667.50;;;12.79;nan
11077;BME280;5591;42.626;23.380;2023-11-22T07:40:31;93658.31;;;12.88;nan
11077;BME280;5591;42.626;23.380;2023-11-22T07:42:59;93670.19;;;12.73;nan
11077;BME280;5591;42.626;23.380;2023-11-22T07:45:28;93665.75;;;12.98;nan
11077;BME280;5591;42.626;23.380;2023-11-22T07:47:54;93681.16;;;12.94;nan
11077;BME280;5591;42.626;23.380;2023-11-22T07:50:26;93685.00;;;12.67;nan
11077;BME280;5591;42.626;23.380;2023-11-22T07:52:53;93680.03;;;12.22;nan
11077;BME280;5591;42.626;23.380;2023-11-22T07:55:20;93673.53;;;11.94;nan
11077;BME280;5591;42.626;23.380;2023-11-22T07:57:48;93678.09;;;11.48;nan
11077;BME280;5591;42.626;23.380;2023-11-22T08:00:16;93669.44;;;11.47;nan
11077;BME280;5591;42.626;23.380;2023-11-22T08:02:45;93605.28;;;11.11;nan
11077;BME280;5591;42.626;23.380;2023-11-22T08:05:11;93675.53;;;11.92;nan
11077;BME280;5591;42.626;23.380;2023-11-22T08:07:42;93666.88;;;12.22;nan
11077;BME280;5591;42.626;23.380;2023-11-22T08:10:11;93703.63;;;12.35;nan
11077;BME280;5591;42.626;23.380;2023-11-22T08:12:44;93679.41;;;12.57;nan
11077;BME280;5591;42.626;23.380;2023-11-22T08:15:13;93638.78;;;12.71;nan
11077;BME280;5591;42.626;23.380;2023-11-22T08:17:41;93680.16;;;12.89;nan
11077;BME280;5591;42.626;23.380;2023-11-22T08:20:08;93687.19;;;13.01;nan
11077;BME280;5591;42.626;23.380;2023-11-22T08:22:38;93702.34;;;13.48;nan
11077;BME280;5591;42.626;23.380;2023-11-22T08:25:08;93699.72;;;13.66;nan
11077;BME280;5591;42.626;23.380;2023-11-22T08:27:38;93704.31;;;13.89;nan
11077;BME280;5591;42.626;23.380;2023-11-22T08:30:07;93709.91;;;13.81;nan
11077;BME280;5591;42.626;23.380;2023-11-22T08:32:41;93716.50;;;13.90;nan
11077;BME280;5591;42.626;23.380;2023-11-22T08:35:09;93700.75;;;13.65;nan
11077;BME280;5591;42.626;23.380;2023-11-22T08:37:39;93699.34;;;13.63;nan
11077;BME280;5591;42.626;23.380;2023-11-22T08:40:10;93698.53;;;13.98;nan
11077;BME280;5591;42.626;23.380;2023-11-22T08:42:39;93698.69;;;13.07;nan
11077;BME280;5591;42.626;23.380;2023-11-22T08:45:08;93716.41;;;13.78;nan
11077;BME280;5591;42.626;23.380;2023-11-22T08:47:37;93714.63;;;13.36;nan
11077;BME280;5591;42.626;23.380;2023-11-22T08:50:06;93711.94;;;12.69;nan
11077;BME280;5591;42.626;23.380;2023-11-22T08:52:33;93715.44;;;12.88;nan
11077;BME280;5591;42.626;23.380;2023-11-22T08:55:02;93723.09;;;13.63;nan
11077;BME280;5591;42.626;23.380;2023-11-22T08:57:30;93699.72;;;13.84;nan
11077;BME280;5591;42.626;23.380;2023-11-22T08:59:57;93703.25;;;13.96;nan
11077;BME280;5591;42.626;23.380;2023-11-22T09:02:27;93683.56;;;14.28;nan
11077;BME280;5591;42.626;23.380;2023-11-22T09:04:53;93706.31;;;14.41;nan
11077;BME280;5591;42.626;23.380;2023-11-22T09:07:20;93700.94;;;14.36;nan
11077;BME280;5591;42.626;23.380;2023-11-22T09:09:49;93716.72;;;14.54;nan
11077;BME280;5591;42.626;23.380;2023-11-22T09:12:17;93699.03;;;14.07;nan
11077;BME280;5591;42.626;23.380;2023-11-22T09:14:46;93727.63;;;14.28;nan
11077;BME280;5591;42.626;23.380;2023-11-22T09:17:13;93729.25;;;13.93;nan
11077;BME280;5591;42.626;23.380;2023-11-22T09:19:40;93758.13;;;14.06;nan
11077;BME280;5591;42.626;23.380;2023-11-22T09:22:07;93721.84;;;14.19;nan
11077;BME280;5591;42.626;23.380;2023-11-22T09:24:34;93731.38;;;13.84;nan
11077;BME280;5591;42.626;23.380;2023-11-22T09:27:02;93735.34;;;13.75;nan
11077;BME280;5591;42.626;23.380;2023-11-22T09:29:30;93732.41;;;12.92;nan
11077;BME280;5591;42.626;23.380;2023-11-22T09:31:59;93733.00;;;13.43;nan
11077;BME280;5591;42.626;23.380;2023-11-22T09:34:27;93752.44;;;13.24;nan
11077;BME280;5591;42.626;23.380;2023-11-22T09:36:54;93743.47;;;12.76;nan
11077;BME280;5591;42.626;23.380;2023-11-22T09:39:21;93747.13;;;12.75;nan
11077;BME280;5591;42.626;23.380;2023-11-22T09:41:50;93735.25;;;12.97;nan
11077;BME280;5591;42.626;23.380;2023-11-22T09:44:18;93712.03;;;12.50;nan
11077;BME280;5591;42.626;23.380;2023-11-22T09:46:48;93736.47;;;13.43;nan
11077;BME280;5591;42.626;23.380;2023-11-22T09:49:20;93747.56;;;13.88;nan
11077;BME280;5591;42.626;23.380;2023-11-22T09:51:54;93742.97;;;13.41;nan
11077;BME280;5591;42.626;23.380;2023-11-22T09:54:22;93732.25;;;13.36;nan
11077;BME280;5591;42.626;23.380;2023-11-22T09:56:56;93737.81;;;13.88;nan
11077;BME280;5591;42.626;23.380;2023-11-22T09:59:23;93734.38;;;14.06;nan
11077;BME280;5591;42.626;23.380;2023-11-22T10:01:50;93724.38;;;14.44;nan
11077;BME280;5591;42.626;23.380;2023-11-22T10:04:20;93770.69;;;13.68;nan
11077;BME280;5591;42.626;23.380;2023-11-22T10:06:50;93752.19;;;13.74;nan
11077;BME280;5591;42.626;23.380;2023-11-22T10:09:17;93745.94;;;13.69;nan
11077;BME280;5591;42.626;23.380;2023-11-22T10:11:44;93745.13;;;13.68;nan
11077;BME280;5591;42.626;23.380;2023-11-22T10:14:22;93730.72;;;13.71;nan
11077;BME280;5591;42.626;23.380;2023-11-22T10:16:58;93736.88;;;13.40;nan
11077;BME280;5591;42.626;23.380;2023-11-22T10:19:26;93729.38;;;13.19;nan
11077;BME280;5591;42.626;23.380;2023-11-22T10:22:03;93720.88;;;13.78;nan
11077;BME280;5591;42.626;23.380;2023-11-22T10:24:31;93736.44;;;14.22;nan
11077;BME280;5591;42.626;23.380;2023-11-22T10:26:59;93736.94;;;14.60;nan
11077;BME280;5591;42.626;23.380;2023-11-22T10:29:26;93732.81;;;14.64;nan
11077;BME280;5591;42.626;23.380;2023-11-22T10:31:53;93734.88;;;14.91;nan
11077;BME280;5591;42.626;23.380;2023-11-22T10:34:21;93729.72;;;14.96;nan
11077;BME280;5591;42.626;23.380;2023-11-22T10:36:50;93736.13;;;15.00;nan
11077;BME280;5591;42.626;23.380;2023-11-22T10:39:19;93727.38;;;14.77;nan
11077;BME280;5591;42.626;23.380;2023-11-22T10:41:46;93720.63;;;14.92;nan
11077;BME280;5591;42.626;23.380;2023-11-22T10:44:13;93737.84;;;14.94;nan
11077;BME280;5591;42.626;23.380;2023-11-22T10:46:42;93737.53;;;15.02;nan
11077;BME280;5591;42.626;23.380;2023-11-22T10:49:09;93744.91;;;15.12;nan
11077;BME280;5591;42.626;23.380;2023-11-22T10:51:40;93746.06;;;15.16;nan
11077;BME280;5591;42.626;23.380;2023-11-22T10:54:09;93736.28;;;15.16;nan
11077;BME280;5591;42.626;23.380;2023-11-22T10:56:38;93736.16;;;15.11;nan
11077;BME280;5591;42.626;23.380;2023-11-22T10:59:12;93716.31;;;15.20;nan
11077;BME280;5591;42.626;23.380;2023-11-22T11:01:44;93736.31;;;15.28;nan
11077;BME280;5591;42.626;23.380;2023-11-22T11:04:19;93734.56;;;15.10;nan
11077;BME280;5591;42.626;23.380;2023-11-22T11:06:51;93732.13;;;15.09;nan
11077;BME280;5591;42.626;23.380;2023-11-22T11:09:22;93730.38;;;15.32;nan
11077;BME280;5591;42.626;23.380;2023-11-22T11:11:55;93740.38;;;15.30;nan
11077;BME280;5591;42.626;23.380;2023-11-22T11:14:23;93663.56;;;14.50;nan
11077;BME280;5591;42.626;23.380;2023-11-22T11:16:50;93745.25;;;15.15;nan
11077;BME280;5591;42.626;23.380;2023-11-22T11:19:20;93734.34;;;15.12;nan
11077;BME280;5591;42.626;23.380;2023-11-22T11:21:47;93740.22;;;15.14;nan
11077;BME280;5591;42.626;23.380;2023-11-22T11:24:15;93741.91;;;15.20;nan
11077;BME280;5591;42.626;23.380;2023-11-22T11:26:47;93731.09;;;15.10;nan
11077;BME280;5591;42.626;23.380;2023-11-22T11:29:32;93719.78;;;15.32;nan
11077;BME280;5591;42.626;23.380;2023-11-22T11:31:59;93723.03;;;15.46;nan
11077;BME280;5591;42.626;23.380;2023-11-22T11:34:28;93735.09;;;15.53;nan
11077;BME280;5591;42.626;23.380;2023-11-22T11:36:56;93732.53;;;15.35;nan
11077;BME280;5591;42.626;23.380;2023-11-22T11:39:26;93732.09;;;15.50;nan
11077;BME280;5591;42.626;23.380;2023-11-22T11:42:10;93731.97;;;15.79;nan
11077;BME280;5591;42.626;23.380;2023-11-22T11:44:51;93734.75;;;15.84;nan
11077;BME280;5591;42.626;23.380;2023-11-22T11:47:18;93744.75;;;15.82;nan
11077;BME280;5591;42.626;23.380;2023-11-22T11:49:45;93747.28;;;15.89;nan
11077;BME280;5591;42.626;23.380;2023-11-22T11:52:11;93743.00;;;16.11;nan
11077;BME280;5591;42.626;23.380;2023-11-22T11:54:39;93731.97;;;16.02;nan
11077;BME280;5591;42.626;23.380;2023-11-22T11:57:06;93736.09;;;16.10;nan
11077;BME280;5591;42.626;23.380;2023-11-22T11:59:35;93741.84;;;15.95;nan
11077;BME280;5591;42.626;23.380;2023-11-22T12:02:02;93739.09;;;16.02;nan
11077;BME280;5591;42.626;23.380;2023-11-22T12:04:31;93738.94;;;16.08;nan
11077;BME280;5591;42.626;23.380;2023-11-22T12:06:58;93742.72;;;16.12;nan
11077;BME280;5591;42.626;23.380;2023-11-22T12:09:25;93744.47;;;16.18;nan
11077;BME280;5591;42.626;23.380;2023-11-22T12:11:53;93743.94;;;16.44;nan
11077;BME280;5591;42.626;23.380;2023-11-22T12:14:19;93752.41;;;16.18;nan
11077;BME280;5591;42.626;23.380;2023-11-22T12:16:50;93757.78;;;16.23;nan
11077;BME280;5591;42.626;23.380;2023-11-22T12:19:24;93762.00;;;16.08;nan
11077;BME280;5591;42.626;23.380;2023-11-22T12:21:52;93749.03;;;15.60;nan
11077;BME280;5591;42.626;23.380;2023-11-22T12:24:19;93770.84;;;15.67;nan
11077;BME280;5591;42.626;23.380;2023-11-22T12:26:47;93767.31;;;15.50;nan
11077;BME280;5591;42.626;23.380;2023-11-22T12:29:15;93773.25;;;15.80;nan
11077;BME280;5591;42.626;23.380;2023-11-22T12:31:45;93708.75;;;15.58;nan
11077;BME280;5591;42.626;23.380;2023-11-22T12:34:14;93759.22;;;16.14;nan
11077;BME280;5591;42.626;23.380;2023-11-22T12:36:41;93770.22;;;16.34;nan
11077;BME280;5591;42.626;23.380;2023-11-22T12:39:09;93774.38;;;16.30;nan
11077;BME280;5591;42.626;23.380;2023-11-22T12:41:42;93770.56;;;16.49;nan
11077;BME280;5591;42.626;23.380;2023-11-22T12:44:10;93772.13;;;16.62;nan
11077;BME280;5591;42.626;23.380;2023-11-22T12:46:47;93775.47;;;16.85;nan
11077;BME280;5591;42.626;23.380;2023-11-22T12:49:18;93778.38;;;16.84;nan
11077;BME280;5591;42.626;23.380;2023-11-22T12:51:46;93793.19;;;15.71;nan
11077;BME280;5591;42.626;23.380;2023-11-22T12:54:13;93798.56;;;15.01;nan
11077;BME280;5591;42.626;23.380;2023-11-22T12:56:40;93799.53;;;14.59;nan
11077;BME280;5591;42.626;23.380;2023-11-22T12:59:07;93803.91;;;14.94;nan
11077;BME280;5591;42.626;23.380;2023-11-22T13:01:35;93802.34;;;15.05;nan
11077;BME280;5591;42.626;23.380;2023-11-22T13:04:02;93810.25;;;14.46;nan
11077;BME280;5591;42.626;23.380;2023-11-22T13:06:31;93811.34;;;14.86;nan
11077;BME280;5591;42.626;23.380;2023-11-22T13:08:58;93816.13;;;14.30;nan
11077;BME280;5591;42.626;23.380;2023-11-22T13:11:24;93819.66;;;14.00;nan
11077;BME280;5591;42.626;23.380;2023-11-22T13:13:52;93812.53;;;14.43;nan
11077;BME280;5591;42.626;23.380;2023-11-22T13:16:18;93823.75;;;14.20;nan
11077;BME280;5591;42.626;23.380;2023-11-22T13:18:46;93823.25;;;13.87;nan
11077;BME280;5591;42.626;23.380;2023-11-22T13:21:14;93807.38;;;14.48;nan
11077;BME280;5591;42.626;23.380;2023-11-22T13:23:42;93821.25;;;14.91;nan
11077;BME280;5591;42.626;23.380;2023-11-22T13:26:09;93833.25;;;14.57;nan